createdAt,value
2023-05-09T00:00:12.183Z,14.53
2023-05-09T00:02:39.885Z,14.61
2023-05-09T00:05:08.700Z,14.65
2023-05-09T00:07:36.216Z,14.70
2023-05-09T00:10:03.941Z,14.64
2023-05-09T00:12:31.552Z,14.55
2023-05-09T00:14:59.328Z,14.52
2023-05-09T00:17:28.556Z,14.57
2023-05-09T00:19:56.354Z,14.61
2023-05-09T00:22:23.867Z,14.67
2023-05-09T00:24:51.869Z,14.71
2023-05-09T00:27:19.478Z,14.75
2023-05-09T00:29:47.479Z,14.68
2023-05-09T00:32:15.084Z,14.74
2023-05-09T00:34:43.925Z,14.74
2023-05-09T00:37:11.435Z,14.79
2023-05-09T00:39:39.140Z,14.83
2023-05-09T00:42:06.763Z,14.77
2023-05-09T00:44:34.297Z,14.67
2023-05-09T00:47:01.855Z,14.72
2023-05-09T00:49:29.558Z,14.76
2023-05-09T00:51:59.189Z,14.76
2023-05-09T00:54:27.079Z,14.67
2023-05-09T00:56:54.993Z,14.64
2023-05-09T00:59:22.656Z,14.67
2023-05-09T01:01:50.731Z,14.57
2023-05-09T01:04:18.370Z,14.31
2023-05-09T01:06:54.601Z,14.19
2023-05-09T01:09:30.608Z,14.26
2023-05-09T01:12:11.115Z,14.37
2023-05-09T01:14:45.154Z,14.49
2023-05-09T01:17:28.140Z,14.54
2023-05-09T01:20:10.641Z,14.58
2023-05-09T01:22:44.365Z,14.60
2023-05-09T01:25:38.959Z,14.66
2023-05-09T01:28:15.425Z,14.54
2023-05-09T01:30:47.490Z,14.53
2023-05-09T01:33:19.384Z,14.53
2023-05-09T01:35:52.271Z,14.47
2023-05-09T01:38:22.917Z,14.39
2023-05-09T01:40:53.916Z,14.33
2023-05-09T01:43:24.241Z,14.32
2023-05-09T01:45:54.672Z,14.37
2023-05-09T01:48:26.233Z,14.39
2023-05-09T01:50:55.682Z,14.46
2023-05-09T01:53:25.710Z,14.50
2023-05-09T01:55:53.789Z,14.52
2023-05-09T01:58:23.407Z,14.53
2023-05-09T02:00:53.044Z,14.47
2023-05-09T02:03:21.479Z,14.28
2023-05-09T02:05:49.648Z,14.27
2023-05-09T02:08:21.080Z,14.26
2023-05-09T02:10:50.059Z,14.05
2023-05-09T02:13:18.059Z,13.99
2023-05-09T02:15:46.195Z,14.09
2023-05-09T02:18:16.573Z,13.90
2023-05-09T02:20:44.153Z,13.75
2023-05-09T02:23:12.434Z,13.68
2023-05-09T02:25:41.455Z,13.72
2023-05-09T02:28:10.145Z,13.96
2023-05-09T02:30:41.297Z,14.07
2023-05-09T02:33:11.647Z,14.12
2023-05-09T02:35:42.760Z,14.09
2023-05-09T02:38:10.764Z,13.68
2023-05-09T02:40:38.410Z,13.64
2023-05-09T02:43:06.198Z,13.64
2023-05-09T02:45:33.927Z,13.84
2023-05-09T02:48:01.469Z,13.98
2023-05-09T02:50:29.078Z,14.05
2023-05-09T02:52:57.924Z,14.00
2023-05-09T02:55:25.674Z,13.79
2023-05-09T02:58:05.331Z,13.45
2023-05-09T03:00:39.952Z,13.47
2023-05-09T03:03:07.535Z,13.76
2023-05-09T03:05:35.256Z,13.63
2023-05-09T03:08:05.038Z,13.34
2023-05-09T03:10:32.596Z,13.40
2023-05-09T03:13:00.336Z,13.49
2023-05-09T03:15:27.929Z,13.66
2023-05-09T03:17:55.565Z,13.78
2023-05-09T03:20:23.176Z,13.93
2023-05-09T03:22:50.731Z,14.01
2023-05-09T03:25:19.749Z,13.92
2023-05-09T03:27:47.276Z,13.84
2023-05-09T03:30:15.679Z,13.92
2023-05-09T03:32:43.289Z,14.02
2023-05-09T03:35:11.076Z,14.09
2023-05-09T03:37:38.571Z,14.13
2023-05-09T03:40:07.728Z,14.23
2023-05-09T03:42:36.564Z,14.29
2023-05-09T03:45:04.356Z,14.30
2023-05-09T03:47:31.870Z,14.31
2023-05-09T03:49:59.366Z,14.25
2023-05-09T03:52:26.902Z,14.26
2023-05-09T03:54:54.433Z,14.27
2023-05-09T03:57:21.954Z,14.29
2023-05-09T03:59:51.274Z,14.28
2023-05-09T04:02:18.911Z,14.26
2023-05-09T04:04:47.223Z,14.19
2023-05-09T04:07:14.850Z,14.15
2023-05-09T04:09:43.254Z,14.28
2023-05-09T04:12:10.791Z,14.37
2023-05-09T04:14:39.134Z,14.38
2023-05-09T04:17:08.133Z,14.33
2023-05-09T04:19:35.700Z,14.23
2023-05-09T04:22:03.258Z,14.21
2023-05-09T04:24:31.008Z,14.30
2023-05-09T04:26:58.655Z,14.15
2023-05-09T04:29:26.610Z,14.24
2023-05-09T04:31:54.542Z,14.21
2023-05-09T04:34:23.416Z,14.27
2023-05-09T04:36:51.956Z,14.36
2023-05-09T04:39:19.482Z,14.45
2023-05-09T04:41:47.814Z,14.49
2023-05-09T04:44:15.336Z,14.54
2023-05-09T04:46:42.985Z,14.57
2023-05-09T04:49:10.600Z,14.56
2023-05-09T04:51:39.512Z,14.53
2023-05-09T04:54:07.025Z,14.56
2023-05-09T04:56:34.545Z,14.66
2023-05-09T04:59:02.047Z,14.71
2023-05-09T05:01:29.574Z,14.83
2023-05-09T05:03:57.099Z,14.90
2023-05-09T05:06:24.799Z,14.93
2023-05-09T05:08:53.636Z,14.95
2023-05-09T05:11:21.789Z,14.98
2023-05-09T05:13:49.349Z,14.97
2023-05-09T05:16:16.925Z,15.00
2023-05-09T05:18:44.510Z,15.88
2023-05-09T05:21:12.049Z,16.56
2023-05-09T05:23:39.550Z,16.97
2023-05-09T05:26:08.390Z,17.22
2023-05-09T05:28:36.047Z,17.37
2023-05-09T05:31:03.657Z,17.43
2023-05-09T05:33:31.157Z,17.52
2023-05-09T05:35:58.693Z,16.62
2023-05-09T05:38:26.321Z,16.53
2023-05-09T05:40:53.827Z,16.85
2023-05-09T05:43:22.768Z,17.13
2023-05-09T05:45:50.398Z,16.87
2023-05-09T05:48:17.923Z,16.83
2023-05-09T05:50:45.443Z,17.15
2023-05-09T05:53:12.971Z,16.83
2023-05-09T05:55:40.510Z,17.01
2023-05-09T05:58:08.011Z,17.25
2023-05-09T06:00:36.858Z,17.48
2023-05-09T06:03:04.617Z,17.63
2023-05-09T06:05:32.314Z,17.46
2023-05-09T06:07:59.857Z,17.64
2023-05-09T06:10:27.386Z,17.63
2023-05-09T06:12:54.980Z,17.69
2023-05-09T06:15:22.545Z,17.88
2023-05-09T06:17:51.519Z,17.91
2023-05-09T06:20:19.129Z,17.82
2023-05-09T06:22:46.658Z,17.77
2023-05-09T06:25:14.443Z,17.87
2023-05-09T06:27:42.858Z,17.91
2023-05-09T06:30:24.533Z,17.76
2023-05-09T06:32:55.592Z,17.79
2023-05-09T06:35:23.222Z,17.85
2023-05-09T06:37:50.921Z,17.90
2023-05-09T06:40:18.478Z,17.98
2023-05-09T06:42:46.161Z,17.97
2023-05-09T06:45:13.831Z,17.94
2023-05-09T06:47:41.596Z,17.95
2023-05-09T06:50:11.040Z,18.02
2023-05-09T06:52:38.571Z,18.12
2023-05-09T06:55:07.271Z,18.22
2023-05-09T06:57:34.824Z,18.28
2023-05-09T07:00:02.367Z,18.38
2023-05-09T07:02:29.931Z,18.47
2023-05-09T07:04:57.475Z,18.66
2023-05-09T07:07:26.335Z,18.75
2023-05-09T07:10:00.694Z,18.82
2023-05-09T07:12:35.256Z,18.73
2023-05-09T07:15:02.759Z,18.70
2023-05-09T07:17:30.857Z,17.75
2023-05-09T07:19:58.364Z,18.13
2023-05-09T07:22:28.754Z,18.29
2023-05-09T07:24:58.330Z,17.93
2023-05-09T07:27:25.855Z,17.96
2023-05-09T07:29:53.497Z,17.99
2023-05-09T07:32:21.074Z,17.90
2023-05-09T07:34:48.776Z,17.82
2023-05-09T07:37:16.777Z,17.59
2023-05-09T07:39:46.192Z,17.60
2023-05-09T07:42:13.792Z,17.43
2023-05-09T07:44:41.348Z,17.54
2023-05-09T07:47:08.978Z,17.81
2023-05-09T07:49:36.663Z,17.75
2023-05-09T07:52:04.531Z,18.04
2023-05-09T07:54:32.054Z,18.31
2023-05-09T07:57:00.965Z,17.46
2023-05-09T07:59:28.476Z,17.54
2023-05-09T08:01:56.127Z,18.31
2023-05-09T08:04:23.732Z,18.39
2023-05-09T08:06:51.266Z,18.03
2023-05-09T08:09:19.062Z,18.43
2023-05-09T08:11:46.638Z,18.47
2023-05-09T08:14:15.708Z,18.17
2023-05-09T08:16:43.803Z,18.22
2023-05-09T08:19:11.294Z,18.77
2023-05-09T08:21:38.801Z,19.05
2023-05-09T08:24:07.986Z,18.96
2023-05-09T08:26:35.629Z,18.52
2023-05-09T08:29:03.152Z,19.22
2023-05-09T08:31:32.141Z,19.59
2023-05-09T08:33:59.707Z,19.95
2023-05-09T08:36:27.321Z,19.54
2023-05-09T08:38:54.839Z,19.85
2023-05-09T08:41:27.838Z,19.54
2023-05-09T08:43:56.223Z,20.00
2023-05-09T08:46:28.818Z,20.63
2023-05-09T08:48:58.769Z,20.30
2023-05-09T08:51:26.790Z,20.09
2023-05-09T08:53:55.187Z,19.99
2023-05-09T08:56:22.814Z,19.60
2023-05-09T08:58:51.173Z,20.24
2023-05-09T09:01:19.365Z,20.01
2023-05-09T09:03:49.429Z,20.31
2023-05-09T09:06:18.911Z,20.43
2023-05-09T09:08:48.801Z,20.89
2023-05-09T09:11:18.508Z,20.59
2023-05-09T09:13:47.622Z,20.66
2023-05-09T09:16:19.162Z,20.46
2023-05-09T09:18:47.570Z,20.68
2023-05-09T09:21:20.704Z,21.58
2023-05-09T09:23:49.714Z,21.98
2023-05-09T09:26:17.524Z,22.18
2023-05-09T09:28:45.234Z,21.78
2023-05-09T09:31:23.275Z,22.10
2023-05-09T09:33:51.404Z,22.01
2023-05-09T09:36:29.436Z,21.36
2023-05-09T09:39:01.454Z,21.55
2023-05-09T09:41:33.590Z,21.65
2023-05-09T09:44:08.052Z,21.18
2023-05-09T09:46:43.068Z,20.76
2023-05-09T09:49:11.049Z,21.07
2023-05-09T09:51:40.158Z,21.87
2023-05-09T09:54:08.718Z,22.25
2023-05-09T09:56:41.016Z,22.31
2023-05-09T09:59:12.948Z,22.14
2023-05-09T10:01:57.808Z,22.60
2023-05-09T10:04:26.380Z,22.61
2023-05-09T10:06:56.145Z,22.35
2023-05-09T10:09:24.036Z,22.65
2023-05-09T10:11:53.013Z,21.98
2023-05-09T10:14:23.238Z,21.93
2023-05-09T10:16:53.309Z,21.94
2023-05-09T10:19:22.089Z,21.99
2023-05-09T10:21:53.644Z,22.17
2023-05-09T10:24:28.717Z,22.30
2023-05-09T10:27:05.008Z,22.07
2023-05-09T10:29:36.123Z,22.37
2023-05-09T10:32:11.926Z,22.47
2023-05-09T10:34:44.402Z,22.16
2023-05-09T10:37:12.592Z,22.41
2023-05-09T10:39:42.656Z,22.49
2023-05-09T10:42:10.659Z,22.56
2023-05-09T10:44:38.776Z,22.35
2023-05-09T10:47:07.217Z,22.40
2023-05-09T10:49:36.985Z,21.98
2023-05-09T10:52:05.396Z,22.04
2023-05-09T10:54:33.539Z,21.83
2023-05-09T10:57:03.490Z,21.97
2023-05-09T10:59:38.424Z,22.33
2023-05-09T11:02:06.913Z,22.24
2023-05-09T11:04:34.487Z,22.05
2023-05-09T11:07:02.027Z,22.22
2023-05-09T11:09:32.993Z,22.35
2023-05-09T11:12:09.742Z,22.46
2023-05-09T11:14:43.091Z,22.53
2023-05-09T11:17:12.326Z,22.58
2023-05-09T11:19:58.973Z,22.20
2023-05-09T11:22:28.493Z,22.29
2023-05-09T11:25:04.443Z,22.56
2023-05-09T11:27:40.536Z,22.44
2023-05-09T11:30:09.392Z,22.54
2023-05-09T11:32:43.300Z,22.49
2023-05-09T11:35:14.539Z,22.46
2023-05-09T11:37:47.939Z,22.59
2023-05-09T11:40:17.272Z,22.43
2023-05-09T11:42:48.561Z,22.70
2023-05-09T11:45:17.357Z,22.93
2023-05-09T11:47:46.884Z,22.79
2023-05-09T11:50:17.032Z,22.90
2023-05-09T11:52:44.713Z,22.97
2023-05-09T11:55:14.362Z,23.21
2023-05-09T11:57:43.043Z,23.37
2023-05-09T12:00:13.304Z,23.50
2023-05-09T12:02:41.008Z,23.23
2023-05-09T12:05:10.408Z,23.46
2023-05-09T12:07:39.461Z,23.49
2023-05-09T12:10:08.663Z,23.23
2023-05-09T12:12:36.375Z,23.34
2023-05-09T12:15:05.671Z,23.57
2023-05-09T12:17:35.164Z,23.56
2023-05-09T12:20:04.627Z,23.59
2023-05-09T12:22:32.290Z,23.64
2023-05-09T12:25:02.337Z,23.35
2023-05-09T12:27:30.139Z,22.78
2023-05-09T12:29:57.716Z,22.62
2023-05-09T12:32:31.515Z,22.59
2023-05-09T12:35:00.840Z,22.97
2023-05-09T12:37:28.520Z,23.34
2023-05-09T12:40:04.090Z,23.39
2023-05-09T12:42:31.790Z,22.97
2023-05-09T12:44:59.518Z,23.09
2023-05-09T12:47:31.137Z,23.26
2023-05-09T12:50:00.615Z,23.03
2023-05-09T12:52:34.651Z,22.58
2023-05-09T12:55:07.302Z,22.94
2023-05-09T12:57:34.857Z,23.10
2023-05-09T13:00:04.604Z,23.15
2023-05-09T13:02:35.147Z,23.04
2023-05-09T13:05:08.846Z,22.74
2023-05-09T13:07:41.634Z,22.60
2023-05-09T13:10:14.292Z,22.86
2023-05-09T13:12:45.009Z,23.32
2023-05-09T13:15:13.533Z,23.76
2023-05-09T13:17:41.340Z,24.07
2023-05-09T13:20:10.801Z,24.27
2023-05-09T13:22:38.372Z,24.13
2023-05-09T13:25:06.954Z,23.99
2023-05-09T13:27:35.121Z,23.72
2023-05-09T13:30:03.504Z,23.19
2023-05-09T13:32:31.511Z,23.05
2023-05-09T13:34:59.066Z,22.83
2023-05-09T13:37:28.621Z,23.00
2023-05-09T13:39:56.334Z,22.95
2023-05-09T13:42:23.886Z,22.94
2023-05-09T13:44:51.550Z,22.98
2023-05-09T13:47:19.074Z,23.12
2023-05-09T13:49:46.545Z,23.26
2023-05-09T13:52:15.553Z,23.69
2023-05-09T13:54:44.688Z,23.69
2023-05-09T13:57:12.538Z,23.69
2023-05-09T13:59:41.099Z,23.63
2023-05-09T14:02:10.752Z,22.94
2023-05-09T14:04:38.362Z,22.90
2023-05-09T14:07:06.556Z,22.66
2023-05-09T14:09:39.768Z,22.57
2023-05-09T14:12:09.519Z,22.77
2023-05-09T14:14:37.063Z,22.47
2023-05-09T14:17:04.651Z,22.50
2023-05-09T14:19:32.152Z,22.48
2023-05-09T14:21:59.671Z,22.39
2023-05-09T14:24:30.787Z,22.28
2023-05-09T14:26:59.258Z,22.24
2023-05-09T14:29:28.242Z,22.19
2023-05-09T14:31:55.883Z,22.15
2023-05-09T14:34:23.384Z,22.14
2023-05-09T14:36:51.122Z,22.05
2023-05-09T14:39:19.106Z,21.99
2023-05-09T14:41:48.919Z,21.99
2023-05-09T14:44:16.529Z,21.89
2023-05-09T14:46:45.541Z,21.84
2023-05-09T14:49:13.096Z,21.71
2023-05-09T14:51:40.618Z,21.67
2023-05-09T14:54:08.245Z,21.63
2023-05-09T14:56:35.777Z,21.52
2023-05-09T14:59:04.225Z,21.46
2023-05-09T15:01:31.747Z,21.29
2023-05-09T15:04:00.700Z,21.25
2023-05-09T15:06:28.974Z,21.19
2023-05-09T15:08:56.483Z,21.03
2023-05-09T15:11:25.250Z,20.96
2023-05-09T15:13:55.925Z,20.81
2023-05-09T15:16:23.491Z,20.42
2023-05-09T15:18:51.004Z,20.02
2023-05-09T15:21:20.309Z,19.84
2023-05-09T15:23:47.797Z,19.51
2023-05-09T15:26:16.876Z,19.55
2023-05-09T15:28:45.347Z,19.40
2023-05-09T15:31:12.987Z,19.17
2023-05-09T15:33:40.716Z,19.25
2023-05-09T15:36:09.640Z,19.18
2023-05-09T15:38:38.490Z,19.05
2023-05-09T15:41:06.131Z,19.17
2023-05-09T15:43:33.821Z,19.14
2023-05-09T15:46:01.563Z,19.13
2023-05-09T15:48:29.093Z,19.30
2023-05-09T15:50:56.583Z,19.18
2023-05-09T15:53:24.097Z,18.86
2023-05-09T15:55:52.946Z,18.89
2023-05-09T15:58:20.695Z,19.07
2023-05-09T16:00:48.221Z,18.83
2023-05-09T16:03:15.783Z,18.40
2023-05-09T16:05:43.744Z,18.21
2023-05-09T16:08:11.903Z,18.11
2023-05-09T16:10:40.350Z,18.04
2023-05-09T16:13:09.413Z,17.81
2023-05-09T16:15:37.063Z,17.65
2023-05-09T16:18:05.294Z,17.57
2023-05-09T16:20:32.865Z,17.27
2023-05-09T16:23:00.568Z,17.33
2023-05-09T16:25:28.136Z,17.41
2023-05-09T16:27:55.673Z,17.38
2023-05-09T16:30:24.690Z,17.38
2023-05-09T16:32:52.575Z,17.08
2023-05-09T16:35:20.190Z,17.08
2023-05-09T16:37:47.693Z,17.46
2023-05-09T16:40:15.884Z,17.45
2023-05-09T16:42:43.720Z,17.16
2023-05-09T16:45:11.790Z,17.02
2023-05-09T16:47:40.693Z,16.99
2023-05-09T16:50:10.222Z,16.77
2023-05-09T16:52:37.752Z,16.76
2023-05-09T16:55:06.131Z,16.60
2023-05-09T16:57:33.832Z,16.14
2023-05-09T17:00:01.327Z,16.18
2023-05-09T17:02:28.847Z,16.36
2023-05-09T17:04:58.202Z,16.40
2023-05-09T17:07:25.789Z,16.36
2023-05-09T17:09:53.337Z,16.33
2023-05-09T17:12:20.860Z,17.03
2023-05-09T17:14:49.270Z,17.23
2023-05-09T17:17:17.769Z,17.16
2023-05-09T17:19:45.399Z,16.82
2023-05-09T17:22:14.300Z,16.51
2023-05-09T17:24:42.100Z,16.39
2023-05-09T17:27:10.741Z,16.41
2023-05-09T17:29:38.405Z,16.32
2023-05-09T17:32:06.655Z,16.32
2023-05-09T17:34:34.332Z,16.14
2023-05-09T17:37:02.758Z,16.10
2023-05-09T17:39:31.645Z,16.11
2023-05-09T17:41:59.338Z,16.04
2023-05-09T17:44:27.171Z,15.80
2023-05-09T17:46:54.703Z,15.90
2023-05-09T17:49:22.418Z,15.82
2023-05-09T17:51:52.079Z,15.93
2023-05-09T17:54:19.845Z,15.99
2023-05-09T17:56:51.054Z,16.72
2023-05-09T17:59:20.121Z,16.99
2023-05-09T18:01:47.730Z,17.06
2023-05-09T18:04:15.674Z,16.86
2023-05-09T18:06:43.175Z,16.58
2023-05-09T18:09:10.709Z,16.39
2023-05-09T18:11:38.240Z,16.29
2023-05-09T18:14:07.216Z,16.16
2023-05-09T18:16:35.602Z,16.02
2023-05-09T18:19:03.292Z,16.05
2023-05-09T18:21:32.173Z,16.08
2023-05-09T18:23:59.742Z,16.01
2023-05-09T18:26:28.668Z,16.43
2023-05-09T18:28:56.166Z,17.00
2023-05-09T18:31:25.126Z,17.24
2023-05-09T18:33:52.634Z,16.91
2023-05-09T18:36:20.547Z,16.60
2023-05-09T18:38:48.208Z,16.29
2023-05-09T18:41:16.478Z,16.16
2023-05-09T18:43:46.292Z,16.06
2023-05-09T18:46:17.052Z,15.97
2023-05-09T18:48:46.430Z,15.95
2023-05-09T18:51:14.048Z,15.86
2023-05-09T18:53:42.403Z,15.73
2023-05-09T18:56:09.996Z,15.62
2023-05-09T18:58:38.042Z,15.73
2023-05-09T19:01:05.768Z,15.58
2023-05-09T19:03:33.409Z,15.69
2023-05-09T19:06:02.289Z,15.75
2023-05-09T19:08:30.391Z,15.65
2023-05-09T19:10:57.858Z,15.68
2023-05-09T19:13:25.662Z,15.61
2023-05-09T19:15:53.224Z,15.55
2023-05-09T19:18:20.706Z,15.65
2023-05-09T19:20:48.250Z,15.71
2023-05-09T19:23:17.102Z,15.71
2023-05-09T19:25:45.507Z,15.68
2023-05-09T19:28:14.524Z,15.75
2023-05-09T19:30:42.054Z,15.74
2023-05-09T19:33:09.634Z,15.74
2023-05-09T19:35:38.169Z,15.76
2023-05-09T19:38:05.851Z,15.79
2023-05-09T19:40:34.740Z,16.30
2023-05-09T19:43:02.306Z,16.79
2023-05-09T19:45:29.801Z,16.81
2023-05-09T19:47:57.389Z,16.44
2023-05-09T19:50:25.007Z,16.19
2023-05-09T19:52:52.554Z,16.05
2023-05-09T19:55:20.192Z,16.22
2023-05-09T19:57:49.424Z,16.81
2023-05-09T20:00:18.095Z,17.09
2023-05-09T20:02:46.952Z,17.06
2023-05-09T20:05:14.689Z,16.46
2023-05-09T20:07:42.304Z,16.26
2023-05-09T20:10:12.525Z,16.03
2023-05-09T20:12:40.071Z,15.99
2023-05-09T20:15:09.822Z,15.78
2023-05-09T20:17:37.343Z,15.81
2023-05-09T20:20:05.434Z,15.77
2023-05-09T20:22:32.939Z,15.78
2023-05-09T20:25:00.490Z,15.77
2023-05-09T20:27:28.013Z,15.66
2023-05-09T20:29:56.394Z,15.61
2023-05-09T20:32:25.603Z,15.50
2023-05-09T20:34:53.145Z,15.39
2023-05-09T20:37:20.741Z,15.38
2023-05-09T20:39:48.263Z,15.40
2023-05-09T20:42:15.757Z,15.48
2023-05-09T20:44:43.241Z,15.39
2023-05-09T20:47:10.768Z,15.31
2023-05-09T20:49:39.620Z,15.27
2023-05-09T20:52:07.104Z,15.32
2023-05-09T20:54:34.652Z,15.29
2023-05-09T20:57:02.171Z,15.26
2023-05-09T20:59:29.675Z,15.28
2023-05-09T21:01:57.273Z,15.26
2023-05-09T21:04:24.930Z,15.29
2023-05-09T21:06:53.819Z,15.22
2023-05-09T21:09:21.323Z,15.14
2023-05-09T21:11:48.796Z,15.12
2023-05-09T21:14:16.434Z,15.18
2023-05-09T21:16:45.078Z,15.12
2023-05-09T21:19:12.622Z,15.07
2023-05-09T21:21:40.143Z,15.11
2023-05-09T21:24:09.691Z,15.11
2023-05-09T21:26:37.239Z,15.04
2023-05-09T21:29:05.189Z,15.08
2023-05-09T21:31:33.474Z,15.12
2023-05-09T21:34:01.092Z,15.14
2023-05-09T21:36:29.052Z,15.01
2023-05-09T21:38:56.534Z,14.92
2023-05-09T21:41:25.555Z,14.99
2023-05-09T21:43:53.093Z,15.02
2023-05-09T21:46:20.727Z,15.05
2023-05-09T21:48:48.248Z,14.98
2023-05-09T21:51:16.082Z,14.89
2023-05-09T21:53:43.578Z,14.86
2023-05-09T21:56:11.117Z,14.88
2023-05-09T21:58:39.981Z,14.85
2023-05-09T22:01:07.555Z,14.80
2023-05-09T22:03:35.825Z,14.86
2023-05-09T22:06:03.386Z,14.86
2023-05-09T22:08:30.914Z,14.89
2023-05-09T22:10:58.439Z,14.76
2023-05-09T22:13:26.722Z,14.76
2023-05-09T22:15:55.669Z,14.84
2023-05-09T22:18:23.195Z,14.82
2023-05-09T22:20:50.747Z,14.68
2023-05-09T22:23:18.266Z,14.67
2023-05-09T22:25:45.820Z,14.76
2023-05-09T22:28:13.353Z,14.69
2023-05-09T22:30:40.882Z,14.63
2023-05-09T22:33:09.774Z,14.53
2023-05-09T22:35:37.297Z,14.60
2023-05-09T22:38:04.799Z,14.70
2023-05-09T22:40:32.302Z,14.54
2023-05-09T22:42:59.824Z,14.35
2023-05-09T22:45:27.339Z,14.54
2023-05-09T22:47:54.878Z,14.30
2023-05-09T22:50:23.731Z,14.32
2023-05-09T22:52:51.237Z,14.34
2023-05-09T22:55:19.218Z,14.15
2023-05-09T22:57:47.368Z,14.25
2023-05-09T23:00:16.131Z,14.16
2023-05-09T23:02:43.816Z,14.23
2023-05-09T23:05:11.423Z,14.14
2023-05-09T23:07:40.313Z,14.18
2023-05-09T23:10:08.864Z,14.26
2023-05-09T23:12:37.783Z,14.30
2023-05-09T23:15:06.253Z,14.17
2023-05-09T23:17:33.795Z,14.18
2023-05-09T23:20:01.525Z,14.23
2023-05-09T23:22:29.050Z,13.99
2023-05-09T23:24:59.563Z,14.11
2023-05-09T23:27:27.230Z,14.09
2023-05-09T23:29:55.014Z,13.97
2023-05-09T23:32:22.688Z,14.14
2023-05-09T23:34:50.228Z,14.02
2023-05-09T23:37:17.874Z,14.14
2023-05-09T23:39:45.403Z,14.12
2023-05-09T23:42:14.253Z,14.13
2023-05-09T23:44:41.738Z,14.13
2023-05-09T23:47:09.304Z,14.07
2023-05-09T23:49:36.820Z,14.01
2023-05-09T23:52:04.953Z,14.13
2023-05-09T23:54:32.442Z,14.12
2023-05-09T23:57:00.067Z,13.95
2023-05-09T23:59:47.634Z,13.88
